3MN0 weather

Shadduck Seaplane Base
Annandale, Minnesota, United States

Public forecast

Using degrees Fahrenheit for public forecast. Weather courtesy of forecast.io.

Closest aviation weather report (METAR) to Shadduck Seaplane Base

Closest report is Maple Lake Municipal Airport, 5.7 nm (10.6 km) SE. Retrieved 2020/04/08 22:15 UTC (12 minutes ago):

KMGG 082215Z AUTO 30015G26KT 10SM 10/M04 A2986 RMK AO2 T00971039

Closest aviation forecast (TAF) to Shadduck Seaplane Base

Closest forecast is St Cloud Regional Airport, 15.3 nm (28.4 km) N. Retrieved 2020/04/08 18:22 UTC (4 hours ago):

TAF KSTC 081720Z 0818/0918 33013G25KT P6SM BKN110 FM090000 30019G30KT P6SM VCSH SCT120 FM090200 30014G24KT P6SM SCT100 FM091200 32019G28KT P6SM BKN080